sensor_id;sensor_type;location;lat;lon;timestamp;temperature;humidity
63966;DHT22;50151;52.030;5.350;2023-03-31T07:37:35;10.50;99.90
63966;DHT22;50151;52.030;5.350;2023-03-31T07:40:03;10.50;99.90
63966;DHT22;50151;52.030;5.350;2023-03-31T07:42:32;10.50;99.90
63966;DHT22;50151;52.030;5.350;2023-03-31T07:44:59;10.50;99.90
63966;DHT22;50151;52.030;5.350;2023-03-31T07:47:26;10.50;99.90
63966;DHT22;50151;52.030;5.350;2023-03-31T07:49:53;10.50;99.90
63966;DHT22;50151;52.030;5.350;2023-03-31T07:52:20;10.60;99.90
63966;DHT22;50151;52.030;5.350;2023-03-31T07:54:47;10.60;99.90
63966;DHT22;50151;52.030;5.350;2023-03-31T07:57:14;10.60;99.90
63966;DHT22;50151;52.030;5.350;2023-03-31T07:59:43;10.60;99.90
63966;DHT22;50151;52.030;5.350;2023-03-31T08:02:12;10.70;99.90
63966;DHT22;50151;52.030;5.350;2023-03-31T08:04:39;10.60;99.90
63966;DHT22;50151;52.030;5.350;2023-03-31T08:07:10;10.60;99.90
63966;DHT22;50151;52.030;5.350;2023-03-31T08:09:39;10.60;99.90
63966;DHT22;50151;52.030;5.350;2023-03-31T08:12:06;10.60;99.90
63966;DHT22;50151;52.030;5.350;2023-03-31T08:14:33;10.60;99.90
63966;DHT22;50151;52.030;5.350;2023-03-31T08:17:08;10.60;99.90
63966;DHT22;50151;52.030;5.350;2023-03-31T08:19:35;10.70;99.90
63966;DHT22;50151;52.030;5.350;2023-03-31T08:22:02;10.70;99.90
63966;DHT22;50151;52.030;5.350;2023-03-31T08:24:29;10.70;99.90
63966;DHT22;50151;52.030;5.350;2023-03-31T08:26:56;10.70;99.90
63966;DHT22;50151;52.030;5.350;2023-03-31T08:29:23;10.80;99.90
63966;DHT22;50151;52.030;5.350;2023-03-31T08:31:49;10.80;99.90
63966;DHT22;50151;52.030;5.350;2023-03-31T08:34:16;10.90;99.90
63966;DHT22;50151;52.030;5.350;2023-03-31T08:36:43;11.00;99.90
63966;DHT22;50151;52.030;5.350;2023-03-31T08:39:10;11.00;99.90
63966;DHT22;50151;52.030;5.350;2023-03-31T08:41:54;11.10;99.90
63966;DHT22;50151;52.030;5.350;2023-03-31T08:47:02;11.30;99.90
63966;DHT22;50151;52.030;5.350;2023-03-31T08:49:40;11.30;99.90
63966;DHT22;50151;52.030;5.350;2023-03-31T08:52:15;11.40;99.90
63966;DHT22;50151;52.030;5.350;2023-03-31T08:54:45;11.30;99.90
63966;DHT22;50151;52.030;5.350;2023-03-31T08:57:24;11.40;99.90
63966;DHT22;50151;52.030;5.350;2023-03-31T08:59:53;11.40;99.90
63966;DHT22;50151;52.030;5.350;2023-03-31T09:02:42;11.40;99.90
63966;DHT22;50151;52.030;5.350;2023-03-31T09:05:34;11.50;99.90
63966;DHT22;50151;52.030;5.350;2023-03-31T09:11:12;11.70;99.90
63966;DHT22;50151;52.030;5.350;2023-03-31T09:13:48;11.70;99.90
63966;DHT22;50151;52.030;5.350;2023-03-31T09:16:25;11.80;99.90
63966;DHT22;50151;52.030;5.350;2023-03-31T09:18:59;11.90;99.90
63966;DHT22;50151;52.030;5.350;2023-03-31T09:21:49;11.90;99.90
63966;DHT22;50151;52.030;5.350;2023-03-31T09:24:29;12.10;99.90
63966;DHT22;50151;52.030;5.350;2023-03-31T09:27:07;12.10;99.90
63966;DHT22;50151;52.030;5.350;2023-03-31T09:29:54;12.20;99.90
63966;DHT22;50151;52.030;5.350;2023-03-31T09:32:24;12.20;99.90
63966;DHT22;50151;52.030;5.350;2023-03-31T09:34:55;12.20;99.90
63966;DHT22;50151;52.030;5.350;2023-03-31T09:37:27;12.20;99.90
63966;DHT22;50151;52.030;5.350;2023-03-31T09:40:01;12.10;99.90
63966;DHT22;50151;52.030;5.350;2023-03-31T09:42:34;12.20;99.90
63966;DHT22;50151;52.030;5.350;2023-03-31T09:45:02;12.20;99.90
63966;DHT22;50151;52.030;5.350;2023-03-31T09:47:35;12.20;99.90
63966;DHT22;50151;52.030;5.350;2023-03-31T09:50:06;12.20;99.90
63966;DHT22;50151;52.030;5.350;2023-03-31T09:52:49;12.20;99.90
63966;DHT22;50151;52.030;5.350;2023-03-31T09:58:06;12.40;99.90
63966;DHT22;50151;52.030;5.350;2023-03-31T10:00:34;12.40;99.90
63966;DHT22;50151;52.030;5.350;2023-03-31T10:03:03;12.50;99.90
63966;DHT22;50151;52.030;5.350;2023-03-31T10:05:35;12.50;99.90
63966;DHT22;50151;52.030;5.350;2023-03-31T10:11:14;12.70;99.90
63966;DHT22;50151;52.030;5.350;2023-03-31T10:14:04;12.90;99.90
63966;DHT22;50151;52.030;5.350;2023-03-31T10:16:41;12.90;99.90
63966;DHT22;50151;52.030;5.350;2023-03-31T10:19:18;12.90;99.90
63966;DHT22;50151;52.030;5.350;2023-03-31T10:21:54;13.00;99.90
63966;DHT22;50151;52.030;5.350;2023-03-31T10:24:22;13.00;99.90
63966;DHT22;50151;52.030;5.350;2023-03-31T10:26:52;13.20;99.90
63966;DHT22;50151;52.030;5.350;2023-03-31T10:29:30;13.10;99.90
63966;DHT22;50151;52.030;5.350;2023-03-31T10:34:51;13.20;99.90
63966;DHT22;50151;52.030;5.350;2023-03-31T10:37:21;13.10;99.90
63966;DHT22;50151;52.030;5.350;2023-03-31T10:40:28;13.20;99.90
63966;DHT22;50151;52.030;5.350;2023-03-31T10:43:15;13.30;99.90
63966;DHT22;50151;52.030;5.350;2023-03-31T10:45:49;13.20;99.90
63966;DHT22;50151;52.030;5.350;2023-03-31T10:48:28;13.10;99.90
63966;DHT22;50151;52.030;5.350;2023-03-31T10:51:17;13.10;99.90
63966;DHT22;50151;52.030;5.350;2023-03-31T10:53:46;13.10;99.90
63966;DHT22;50151;52.030;5.350;2023-03-31T10:56:26;12.90;99.90
63966;DHT22;50151;52.030;5.350;2023-03-31T11:13:07;12.80;99.90
63966;DHT22;50151;52.030;5.350;2023-03-31T11:15:44;12.90;99.90
63966;DHT22;50151;52.030;5.350;2023-03-31T11:18:50;12.80;99.90
63966;DHT22;50151;52.030;5.350;2023-03-31T11:30:00;12.70;99.90
63966;DHT22;50151;52.030;5.350;2023-03-31T11:32:50;12.70;99.90
63966;DHT22;50151;52.030;5.350;2023-03-31T11:38:49;12.80;99.90
63966;DHT22;50151;52.030;5.350;2023-03-31T11:44:18;12.40;99.90
63966;DHT22;50151;52.030;5.350;2023-03-31T11:46:51;12.40;99.90
63966;DHT22;50151;52.030;5.350;2023-03-31T11:49:35;12.30;99.90
63966;DHT22;50151;52.030;5.350;2023-03-31T11:52:27;12.20;99.90
63966;DHT22;50151;52.030;5.350;2023-03-31T11:55:05;12.20;99.90
63966;DHT22;50151;52.030;5.350;2023-03-31T11:58:04;12.10;99.90
63966;DHT22;50151;52.030;5.350;2023-03-31T12:00:39;12.10;99.90
63966;DHT22;50151;52.030;5.350;2023-03-31T12:03:18;12.20;99.90
63966;DHT22;50151;52.030;5.350;2023-03-31T12:06:00;12.10;99.90
63966;DHT22;50151;52.030;5.350;2023-03-31T12:09:16;12.20;99.90
63966;DHT22;50151;52.030;5.350;2023-03-31T12:14:38;12.10;99.90
63966;DHT22;50151;52.030;5.350;2023-03-31T12:17:12;12.10;99.90
63966;DHT22;50151;52.030;5.350;2023-03-31T12:19:54;12.10;99.90
63966;DHT22;50151;52.030;5.350;2023-03-31T12:22:48;12.10;99.90
63966;DHT22;50151;52.030;5.350;2023-03-31T12:25:19;12.10;99.90
63966;DHT22;50151;52.030;5.350;2023-03-31T12:27:48;12.20;99.90
63966;DHT22;50151;52.030;5.350;2023-03-31T12:30:29;12.20;99.90
63966;DHT22;50151;52.030;5.350;2023-03-31T12:33:09;12.10;99.90
63966;DHT22;50151;52.030;5.350;2023-03-31T12:41:31;11.90;99.90
63966;DHT22;50151;52.030;5.350;2023-03-31T12:46:58;12.10;99.90
63966;DHT22;50151;52.030;5.350;2023-03-31T12:52:07;12.30;99.90
63966;DHT22;50151;52.030;5.350;2023-03-31T12:57:25;12.40;99.90
63966;DHT22;50151;52.030;5.350;2023-03-31T13:02:39;12.40;99.90
63966;DHT22;50151;52.030;5.350;2023-03-31T13:08:05;12.50;99.90
63966;DHT22;50151;52.030;5.350;2023-03-31T13:10:53;12.40;99.90
63966;DHT22;50151;52.030;5.350;2023-03-31T13:13:22;12.50;99.90
63966;DHT22;50151;52.030;5.350;2023-03-31T13:15:55;12.40;99.90
63966;DHT22;50151;52.030;5.350;2023-03-31T13:18:23;12.50;99.90
63966;DHT22;50151;52.030;5.350;2023-03-31T13:21:03;12.30;99.90
63966;DHT22;50151;52.030;5.350;2023-03-31T13:23:34;12.30;99.90
63966;DHT22;50151;52.030;5.350;2023-03-31T13:26:01;12.40;99.90
63966;DHT22;50151;52.030;5.350;2023-03-31T13:28:38;12.50;99.90
63966;DHT22;50151;52.030;5.350;2023-03-31T13:31:08;12.50;99.90
63966;DHT22;50151;52.030;5.350;2023-03-31T13:33:46;12.50;99.90
63966;DHT22;50151;52.030;5.350;2023-03-31T13:41:21;12.30;99.90
63966;DHT22;50151;52.030;5.350;2023-03-31T13:44:20;12.10;99.90
63966;DHT22;50151;52.030;5.350;2023-03-31T13:47:16;12.20;99.90
63966;DHT22;50151;52.030;5.350;2023-03-31T14:06:49;12.00;99.90
63966;DHT22;50151;52.030;5.350;2023-03-31T14:09:33;11.90;99.90
63966;DHT22;50151;52.030;5.350;2023-03-31T14:12:01;11.90;99.90
63966;DHT22;50151;52.030;5.350;2023-03-31T14:14:44;11.90;99.90
63966;DHT22;50151;52.030;5.350;2023-03-31T14:17:11;12.00;99.90
63966;DHT22;50151;52.030;5.350;2023-03-31T14:22:16;12.10;99.90
63966;DHT22;50151;52.030;5.350;2023-03-31T14:33:33;11.90;99.90
63966;DHT22;50151;52.030;5.350;2023-03-31T14:36:11;11.80;99.90
63966;DHT22;50151;52.030;5.350;2023-03-31T14:38:38;11.70;99.90
63966;DHT22;50151;52.030;5.350;2023-03-31T14:41:05;11.70;99.90
63966;DHT22;50151;52.030;5.350;2023-03-31T14:43:35;11.80;99.90
63966;DHT22;50151;52.030;5.350;2023-03-31T14:46:07;11.80;99.90
63966;DHT22;50151;52.030;5.350;2023-03-31T14:48:42;11.80;99.90
63966;DHT22;50151;52.030;5.350;2023-03-31T14:51:12;11.90;99.90
63966;DHT22;50151;52.030;5.350;2023-03-31T14:53:39;11.90;99.90
63966;DHT22;50151;52.030;5.350;2023-03-31T14:56:08;11.90;99.90
63966;DHT22;50151;52.030;5.350;2023-03-31T14:58:40;11.90;99.90
63966;DHT22;50151;52.030;5.350;2023-03-31T15:01:13;12.00;99.90
63966;DHT22;50151;52.030;5.350;2023-03-31T15:03:43;12.10;99.90
63966;DHT22;50151;52.030;5.350;2023-03-31T15:06:10;12.00;99.90
63966;DHT22;50151;52.030;5.350;2023-03-31T15:08:37;11.80;99.90
63966;DHT22;50151;52.030;5.350;2023-03-31T15:11:09;11.90;99.90
63966;DHT22;50151;52.030;5.350;2023-03-31T15:13:42;11.80;99.90
63966;DHT22;50151;52.030;5.350;2023-03-31T15:19:35;11.80;99.90
63966;DHT22;50151;52.030;5.350;2023-03-31T15:22:13;11.80;99.90
63966;DHT22;50151;52.030;5.350;2023-03-31T15:24:41;11.80;99.90
63966;DHT22;50151;52.030;5.350;2023-03-31T15:30:21;11.80;99.90
63966;DHT22;50151;52.030;5.350;2023-03-31T15:32:49;11.80;99.90
63966;DHT22;50151;52.030;5.350;2023-03-31T15:35:23;11.70;99.90
63966;DHT22;50151;52.030;5.350;2023-03-31T15:37:53;11.70;99.90
63966;DHT22;50151;52.030;5.350;2023-03-31T15:40:23;11.80;99.90
63966;DHT22;50151;52.030;5.350;2023-03-31T15:42:54;11.60;99.90
63966;DHT22;50151;52.030;5.350;2023-03-31T15:45:48;11.60;99.90
63966;DHT22;50151;52.030;5.350;2023-03-31T15:51:03;11.40;99.90
63966;DHT22;50151;52.030;5.350;2023-03-31T15:53:36;11.40;99.90
63966;DHT22;50151;52.030;5.350;2023-03-31T15:56:03;11.40;99.90
63966;DHT22;50151;52.030;5.350;2023-03-31T15:58:59;11.40;99.90
63966;DHT22;50151;52.030;5.350;2023-03-31T16:01:32;11.40;99.90
63966;DHT22;50151;52.030;5.350;2023-03-31T16:04:08;11.50;99.90
63966;DHT22;50151;52.030;5.350;2023-03-31T16:06:42;11.40;99.90
63966;DHT22;50151;52.030;5.350;2023-03-31T16:11:51;11.30;99.90
63966;DHT22;50151;52.030;5.350;2023-03-31T16:16:53;11.20;99.90
63966;DHT22;50151;52.030;5.350;2023-03-31T16:19:21;11.20;99.90
63966;DHT22;50151;52.030;5.350;2023-03-31T16:21:50;11.20;99.90
63966;DHT22;50151;52.030;5.350;2023-03-31T16:24:20;11.20;99.90
63966;DHT22;50151;52.030;5.350;2023-03-31T16:26:58;11.10;99.90
63966;DHT22;50151;52.030;5.350;2023-03-31T16:29:27;11.10;99.90
63966;DHT22;50151;52.030;5.350;2023-03-31T16:32:07;11.20;99.90
63966;DHT22;50151;52.030;5.350;2023-03-31T16:34:34;11.10;99.90
63966;DHT22;50151;52.030;5.350;2023-03-31T16:37:01;11.00;99.90
63966;DHT22;50151;52.030;5.350;2023-03-31T16:39:35;11.00;99.90
63966;DHT22;50151;52.030;5.350;2023-03-31T16:42:01;10.90;99.90
63966;DHT22;50151;52.030;5.350;2023-03-31T16:44:28;10.90;99.90
63966;DHT22;50151;52.030;5.350;2023-03-31T16:46:55;10.90;99.90
63966;DHT22;50151;52.030;5.350;2023-03-31T16:49:22;10.90;99.90
63966;DHT22;50151;52.030;5.350;2023-03-31T16:51:49;10.90;99.90
63966;DHT22;50151;52.030;5.350;2023-03-31T16:54:15;10.90;99.90
63966;DHT22;50151;52.030;5.350;2023-03-31T16:56:42;10.80;99.90
63966;DHT22;50151;52.030;5.350;2023-03-31T16:59:09;10.80;99.90
63966;DHT22;50151;52.030;5.350;2023-03-31T17:01:36;10.80;99.90
63966;DHT22;50151;52.030;5.350;2023-03-31T17:04:02;10.70;99.90
63966;DHT22;50151;52.030;5.350;2023-03-31T17:06:29;10.70;99.90
63966;DHT22;50151;52.030;5.350;2023-03-31T17:08:56;10.70;99.90
63966;DHT22;50151;52.030;5.350;2023-03-31T17:11:23;10.60;99.90
63966;DHT22;50151;52.030;5.350;2023-03-31T17:13:52;10.60;99.90
63966;DHT22;50151;52.030;5.350;2023-03-31T17:16:20;10.60;99.90
63966;DHT22;50151;52.030;5.350;2023-03-31T17:19:05;10.60;99.90
63966;DHT22;50151;52.030;5.350;2023-03-31T17:21:32;10.60;99.90
63966;DHT22;50151;52.030;5.350;2023-03-31T17:23:59;10.60;99.90
63966;DHT22;50151;52.030;5.350;2023-03-31T17:26:28;10.60;99.90
63966;DHT22;50151;52.030;5.350;2023-03-31T17:28:55;10.50;99.90
63966;DHT22;50151;52.030;5.350;2023-03-31T17:31:22;10.60;99.90
63966;DHT22;50151;52.030;5.350;2023-03-31T17:33:50;10.60;99.90
63966;DHT22;50151;52.030;5.350;2023-03-31T17:36:16;10.60;99.90
63966;DHT22;50151;52.030;5.350;2023-03-31T17:38:43;10.60;99.90
63966;DHT22;50151;52.030;5.350;2023-03-31T17:41:12;10.60;99.90
63966;DHT22;50151;52.030;5.350;2023-03-31T17:43:39;10.60;99.90
63966;DHT22;50151;52.030;5.350;2023-03-31T17:46:10;10.70;99.90
63966;DHT22;50151;52.030;5.350;2023-03-31T17:48:38;10.60;99.90
63966;DHT22;50151;52.030;5.350;2023-03-31T17:51:06;10.60;99.90
63966;DHT22;50151;52.030;5.350;2023-03-31T17:53:34;10.60;99.90
63966;DHT22;50151;52.030;5.350;2023-03-31T17:56:02;10.60;99.90
63966;DHT22;50151;52.030;5.350;2023-03-31T17:58:31;10.40;99.90
63966;DHT22;50151;52.030;5.350;2023-03-31T18:00:59;10.50;99.90
63966;DHT22;50151;52.030;5.350;2023-03-31T18:03:28;10.60;99.90
63966;DHT22;50151;52.030;5.350;2023-03-31T18:05:55;10.60;99.90
63966;DHT22;50151;52.030;5.350;2023-03-31T18:08:22;10.60;99.90
63966;DHT22;50151;52.030;5.350;2023-03-31T18:10:49;10.50;99.90
63966;DHT22;50151;52.030;5.350;2023-03-31T18:13:16;10.50;99.90
63966;DHT22;50151;52.030;5.350;2023-03-31T18:15:48;10.50;99.90
63966;DHT22;50151;52.030;5.350;2023-03-31T18:18:17;10.50;99.90
63966;DHT22;50151;52.030;5.350;2023-03-31T18:20:44;10.50;99.90
63966;DHT22;50151;52.030;5.350;2023-03-31T18:23:11;10.50;99.90
63966;DHT22;50151;52.030;5.350;2023-03-31T18:25:41;10.60;99.90
63966;DHT22;50151;52.030;5.350;2023-03-31T18:28:09;10.50;99.90
63966;DHT22;50151;52.030;5.350;2023-03-31T18:30:36;10.50;99.90
63966;DHT22;50151;52.030;5.350;2023-03-31T18:33:03;10.50;99.90
63966;DHT22;50151;52.030;5.350;2023-03-31T18:35:30;10.50;99.90
63966;DHT22;50151;52.030;5.350;2023-03-31T18:37:57;10.40;99.90
63966;DHT22;50151;52.030;5.350;2023-03-31T18:40:24;10.50;99.90
63966;DHT22;50151;52.030;5.350;2023-03-31T18:42:50;10.40;99.90
63966;DHT22;50151;52.030;5.350;2023-03-31T18:45:17;10.40;99.90
63966;DHT22;50151;52.030;5.350;2023-03-31T18:47:44;10.40;99.90
63966;DHT22;50151;52.030;5.350;2023-03-31T18:50:12;10.40;99.90
63966;DHT22;50151;52.030;5.350;2023-03-31T18:52:39;10.40;99.90
63966;DHT22;50151;52.030;5.350;2023-03-31T18:55:06;10.40;99.90
63966;DHT22;50151;52.030;5.350;2023-03-31T18:57:33;10.40;99.90
63966;DHT22;50151;52.030;5.350;2023-03-31T19:00:00;10.40;99.90
63966;DHT22;50151;52.030;5.350;2023-03-31T19:02:27;10.30;99.90
63966;DHT22;50151;52.030;5.350;2023-03-31T19:04:53;10.40;99.90
63966;DHT22;50151;52.030;5.350;2023-03-31T19:07:20;10.40;99.90
63966;DHT22;50151;52.030;5.350;2023-03-31T19:09:47;10.40;99.90
63966;DHT22;50151;52.030;5.350;2023-03-31T19:12:14;10.30;99.90
63966;DHT22;50151;52.030;5.350;2023-03-31T19:14:42;10.40;99.90
63966;DHT22;50151;52.030;5.350;2023-03-31T19:17:09;10.40;99.90
63966;DHT22;50151;52.030;5.350;2023-03-31T19:19:37;10.40;99.90
63966;DHT22;50151;52.030;5.350;2023-03-31T19:22:03;10.40;99.90
63966;DHT22;50151;52.030;5.350;2023-03-31T19:24:30;10.40;99.90
63966;DHT22;50151;52.030;5.350;2023-03-31T19:26:57;10.30;99.90
63966;DHT22;50151;52.030;5.350;2023-03-31T19:29:24;10.30;99.90
63966;DHT22;50151;52.030;5.350;2023-03-31T19:31:50;10.30;99.90
63966;DHT22;50151;52.030;5.350;2023-03-31T19:34:17;10.40;99.90
63966;DHT22;50151;52.030;5.350;2023-03-31T19:36:44;10.30;99.90
63966;DHT22;50151;52.030;5.350;2023-03-31T19:39:11;10.30;99.90
63966;DHT22;50151;52.030;5.350;2023-03-31T19:41:37;10.40;99.90
63966;DHT22;50151;52.030;5.350;2023-03-31T19:44:04;10.30;99.90
63966;DHT22;50151;52.030;5.350;2023-03-31T19:46:31;10.30;99.90
63966;DHT22;50151;52.030;5.350;2023-03-31T19:48:58;10.30;99.90
63966;DHT22;50151;52.030;5.350;2023-03-31T19:51:24;10.30;99.90
63966;DHT22;50151;52.030;5.350;2023-03-31T19:53:51;10.30;99.90
63966;DHT22;50151;52.030;5.350;2023-03-31T19:56:19;10.30;99.90
63966;DHT22;50151;52.030;5.350;2023-03-31T19:58:46;10.30;99.90
63966;DHT22;50151;52.030;5.350;2023-03-31T20:01:21;10.30;99.90
63966;DHT22;50151;52.030;5.350;2023-03-31T20:03:49;10.30;99.90
63966;DHT22;50151;52.030;5.350;2023-03-31T20:06:21;10.30;99.90
63966;DHT22;50151;52.030;5.350;2023-03-31T20:08:52;10.30;99.90
63966;DHT22;50151;52.030;5.350;2023-03-31T20:11:19;10.40;99.90
63966;DHT22;50151;52.030;5.350;2023-03-31T20:13:47;10.30;99.90
63966;DHT22;50151;52.030;5.350;2023-03-31T20:16:16;10.30;99.90
63966;DHT22;50151;52.030;5.350;2023-03-31T20:18:49;10.30;99.90
63966;DHT22;50151;52.030;5.350;2023-03-31T20:21:18;10.30;99.90
63966;DHT22;50151;52.030;5.350;2023-03-31T20:23:45;10.40;99.90
63966;DHT22;50151;52.030;5.350;2023-03-31T20:26:14;10.30;99.90
63966;DHT22;50151;52.030;5.350;2023-03-31T20:28:42;10.30;99.90
63966;DHT22;50151;52.030;5.350;2023-03-31T20:31:17;10.30;99.90
63966;DHT22;50151;52.030;5.350;2023-03-31T20:33:44;10.30;99.90
63966;DHT22;50151;52.030;5.350;2023-03-31T20:36:17;10.30;99.90
63966;DHT22;50151;52.030;5.350;2023-03-31T20:38:45;10.30;99.90
63966;DHT22;50151;52.030;5.350;2023-03-31T20:41:13;10.30;99.90
63966;DHT22;50151;52.030;5.350;2023-03-31T20:43:40;10.30;99.90
63966;DHT22;50151;52.030;5.350;2023-03-31T20:46:07;10.30;99.90
63966;DHT22;50151;52.030;5.350;2023-03-31T20:48:35;10.30;99.90
63966;DHT22;50151;52.030;5.350;2023-03-31T20:51:08;10.30;99.90
63966;DHT22;50151;52.030;5.350;2023-03-31T20:53:35;10.30;99.90
63966;DHT22;50151;52.030;5.350;2023-03-31T20:56:09;10.20;99.90
63966;DHT22;50151;52.030;5.350;2023-03-31T20:58:36;10.20;99.90
63966;DHT22;50151;52.030;5.350;2023-03-31T21:01:04;10.20;99.90
63966;DHT22;50151;52.030;5.350;2023-03-31T21:03:32;10.20;99.90
63966;DHT22;50151;52.030;5.350;2023-03-31T21:06:04;10.10;99.90
63966;DHT22;50151;52.030;5.350;2023-03-31T21:08:37;10.20;99.90
63966;DHT22;50151;52.030;5.350;2023-03-31T21:11:04;10.20;99.90
63966;DHT22;50151;52.030;5.350;2023-03-31T21:13:31;10.20;99.90
63966;DHT22;50151;52.030;5.350;2023-03-31T21:15:59;10.20;99.90
63966;DHT22;50151;52.030;5.350;2023-03-31T21:18:27;10.20;99.90
63966;DHT22;50151;52.030;5.350;2023-03-31T21:21:00;10.10;99.90
63966;DHT22;50151;52.030;5.350;2023-03-31T21:23:28;10.10;99.90
63966;DHT22;50151;52.030;5.350;2023-03-31T21:25:58;10.20;99.90
63966;DHT22;50151;52.030;5.350;2023-03-31T21:28:27;10.10;99.90
63966;DHT22;50151;52.030;5.350;2023-03-31T21:30:56;10.10;99.90
63966;DHT22;50151;52.030;5.350;2023-03-31T21:33:27;10.10;99.90
63966;DHT22;50151;52.030;5.350;2023-03-31T21:35:54;10.10;99.90
63966;DHT22;50151;52.030;5.350;2023-03-31T21:38:22;10.10;99.90
63966;DHT22;50151;52.030;5.350;2023-03-31T21:40:49;10.10;99.90
63966;DHT22;50151;52.030;5.350;2023-03-31T21:43:18;10.10;99.90
63966;DHT22;50151;52.030;5.350;2023-03-31T21:45:45;10.10;99.90
63966;DHT22;50151;52.030;5.350;2023-03-31T21:48:13;10.10;99.90
63966;DHT22;50151;52.030;5.350;2023-03-31T21:50:40;10.10;99.90
63966;DHT22;50151;52.030;5.350;2023-03-31T21:53:07;10.10;99.90
63966;DHT22;50151;52.030;5.350;2023-03-31T21:55:35;10.10;99.90
63966;DHT22;50151;52.030;5.350;2023-03-31T21:58:03;10.10;99.90
63966;DHT22;50151;52.030;5.350;2023-03-31T22:00:31;10.10;99.90
63966;DHT22;50151;52.030;5.350;2023-03-31T22:02:58;10.10;99.90
63966;DHT22;50151;52.030;5.350;2023-03-31T22:05:44;10.00;99.90
63966;DHT22;50151;52.030;5.350;2023-03-31T22:08:12;10.00;99.90
63966;DHT22;50151;52.030;5.350;2023-03-31T22:10:38;10.00;99.90
63966;DHT22;50151;52.030;5.350;2023-03-31T22:13:05;10.00;99.90
63966;DHT22;50151;52.030;5.350;2023-03-31T22:15:31;10.00;99.90
63966;DHT22;50151;52.030;5.350;2023-03-31T22:17:59;10.00;99.90
63966;DHT22;50151;52.030;5.350;2023-03-31T22:20:26;10.00;99.90
63966;DHT22;50151;52.030;5.350;2023-03-31T22:22:54;10.00;99.90
63966;DHT22;50151;52.030;5.350;2023-03-31T22:25:20;10.00;99.90
63966;DHT22;50151;52.030;5.350;2023-03-31T22:27:47;10.00;99.90
63966;DHT22;50151;52.030;5.350;2023-03-31T22:30:14;10.00;99.90
63966;DHT22;50151;52.030;5.350;2023-03-31T22:32:40;10.00;99.90
63966;DHT22;50151;52.030;5.350;2023-03-31T22:35:07;10.00;99.90
63966;DHT22;50151;52.030;5.350;2023-03-31T22:37:34;10.00;99.90
63966;DHT22;50151;52.030;5.350;2023-03-31T22:40:01;10.00;99.90
63966;DHT22;50151;52.030;5.350;2023-03-31T22:42:28;10.00;99.90
63966;DHT22;50151;52.030;5.350;2023-03-31T22:44:55;10.00;99.90
63966;DHT22;50151;52.030;5.350;2023-03-31T22:47:22;10.00;99.90
63966;DHT22;50151;52.030;5.350;2023-03-31T22:49:48;10.00;99.90
63966;DHT22;50151;52.030;5.350;2023-03-31T22:52:15;9.90;99.90
63966;DHT22;50151;52.030;5.350;2023-03-31T22:54:42;10.00;99.90
63966;DHT22;50151;52.030;5.350;2023-03-31T22:57:09;9.90;99.90
63966;DHT22;50151;52.030;5.350;2023-03-31T22:59:36;10.00;99.90
63966;DHT22;50151;52.030;5.350;2023-03-31T23:02:03;9.90;99.90
63966;DHT22;50151;52.030;5.350;2023-03-31T23:04:30;9.90;99.90
63966;DHT22;50151;52.030;5.350;2023-03-31T23:06:56;9.90;99.90
63966;DHT22;50151;52.030;5.350;2023-03-31T23:09:24;9.90;99.90
63966;DHT22;50151;52.030;5.350;2023-03-31T23:11:50;9.90;99.90
63966;DHT22;50151;52.030;5.350;2023-03-31T23:14:17;9.90;99.90
63966;DHT22;50151;52.030;5.350;2023-03-31T23:16:44;10.00;99.90
63966;DHT22;50151;52.030;5.350;2023-03-31T23:19:11;10.00;99.90
63966;DHT22;50151;52.030;5.350;2023-03-31T23:21:37;10.00;99.90
63966;DHT22;50151;52.030;5.350;2023-03-31T23:24:04;10.00;99.90
63966;DHT22;50151;52.030;5.350;2023-03-31T23:26:32;10.00;99.90
63966;DHT22;50151;52.030;5.350;2023-03-31T23:28:59;10.00;99.90
63966;DHT22;50151;52.030;5.350;2023-03-31T23:31:29;10.00;99.90
63966;DHT22;50151;52.030;5.350;2023-03-31T23:33:57;10.00;99.90
63966;DHT22;50151;52.030;5.350;2023-03-31T23:36:25;10.00;99.90
63966;DHT22;50151;52.030;5.350;2023-03-31T23:38:53;10.00;99.90
63966;DHT22;50151;52.030;5.350;2023-03-31T23:41:21;9.90;99.90
63966;DHT22;50151;52.030;5.350;2023-03-31T23:43:49;10.00;99.90
63966;DHT22;50151;52.030;5.350;2023-03-31T23:46:16;10.00;99.90
63966;DHT22;50151;52.030;5.350;2023-03-31T23:48:43;10.00;99.90
63966;DHT22;50151;52.030;5.350;2023-03-31T23:51:10;10.00;99.90
63966;DHT22;50151;52.030;5.350;2023-03-31T23:53:38;10.00;99.90
63966;DHT22;50151;52.030;5.350;2023-03-31T23:56:08;10.00;99.90
63966;DHT22;50151;52.030;5.350;2023-03-31T23:58:36;10.00;99.90
